sensor_id;sensor_type;location;lat;lon;timestamp;pressure;altitude;pressure_sealevel;temperature;humidity
49104;BME280;34915;52.926;11.116;2023-01-28T00:00:57;102846.31;;;1.10;100.00
49104;BME280;34915;52.926;11.116;2023-01-28T00:03:22;102842.84;;;1.06;100.00
49104;BME280;34915;52.926;11.116;2023-01-28T00:05:48;102833.28;;;1.14;100.00
49104;BME280;34915;52.926;11.116;2023-01-28T00:08:13;102830.66;;;1.13;100.00
49104;BME280;34915;52.926;11.116;2023-01-28T00:10:40;102829.81;;;1.12;100.00
49104;BME280;34915;52.926;11.116;2023-01-28T00:13:07;102829.81;;;1.15;100.00
49104;BME280;34915;52.926;11.116;2023-01-28T00:15:35;102831.56;;;1.18;100.00
49104;BME280;34915;52.926;11.116;2023-01-28T00:18:02;102833.28;;;1.17;100.00
49104;BME280;34915;52.926;11.116;2023-01-28T00:20:27;102839.38;;;1.13;100.00
49104;BME280;34915;52.926;11.116;2023-01-28T00:22:53;102836.78;;;1.13;100.00
49104;BME280;34915;52.926;11.116;2023-01-28T00:25:20;102828.06;;;1.20;100.00
49104;BME280;34915;52.926;11.116;2023-01-28T00:27:46;102828.06;;;1.23;100.00
49104;BME280;34915;52.926;11.116;2023-01-28T00:30:11;102823.72;;;1.16;100.00
49104;BME280;34915;52.926;11.116;2023-01-28T00:32:37;102832.41;;;1.14;100.00
49104;BME280;34915;52.926;11.116;2023-01-28T00:35:03;102836.78;;;1.10;100.00
49104;BME280;34915;52.926;11.116;2023-01-28T00:37:28;102821.13;;;1.10;100.00
49104;BME280;34915;52.926;11.116;2023-01-28T00:39:54;102823.72;;;1.12;100.00
49104;BME280;34915;52.926;11.116;2023-01-28T00:42:19;102824.59;;;1.12;100.00
49104;BME280;34915;52.926;11.116;2023-01-28T00:44:45;102826.34;;;1.10;100.00
49104;BME280;34915;52.926;11.116;2023-01-28T00:47:11;102821.13;;;1.10;100.00
49104;BME280;34915;52.926;11.116;2023-01-28T00:49:36;102830.66;;;1.10;100.00
49104;BME280;34915;52.926;11.116;2023-01-28T00:52:02;102831.56;;;1.13;100.00
49104;BME280;34915;52.926;11.116;2023-01-28T00:54:28;102825.44;;;1.11;100.00
49104;BME280;34915;52.926;11.116;2023-01-28T00:56:54;102827.19;;;1.14;100.00
49104;BME280;34915;52.926;11.116;2023-01-28T00:59:19;102824.59;;;1.12;100.00
49104;BME280;34915;52.926;11.116;2023-01-28T01:01:45;102831.56;;;1.15;100.00
49104;BME280;34915;52.926;11.116;2023-01-28T01:04:11;102824.59;;;1.15;100.00
49104;BME280;34915;52.926;11.116;2023-01-28T01:06:38;102828.06;;;1.11;100.00
49104;BME280;34915;52.926;11.116;2023-01-28T01:09:07;102827.19;;;1.27;100.00
49104;BME280;34915;52.926;11.116;2023-01-28T01:11:33;102821.09;;;1.28;100.00
49104;BME280;34915;52.926;11.116;2023-01-28T01:14:01;102833.28;;;1.29;100.00
49104;BME280;34915;52.926;11.116;2023-01-28T01:16:30;102831.56;;;1.28;100.00
49104;BME280;34915;52.926;11.116;2023-01-28T01:19:00;102824.59;;;1.24;100.00
49104;BME280;34915;52.926;11.116;2023-01-28T01:21:28;102826.34;;;1.22;100.00
49104;BME280;34915;52.926;11.116;2023-01-28T01:23:54;102828.06;;;1.20;100.00
49104;BME280;34915;52.926;11.116;2023-01-28T01:26:20;102828.94;;;1.21;100.00
49104;BME280;34915;52.926;11.116;2023-01-28T01:28:46;102834.16;;;1.19;100.00
49104;BME280;34915;52.926;11.116;2023-01-28T01:31:14;102835.03;;;1.18;100.00
49104;BME280;34915;52.926;11.116;2023-01-28T01:33:41;102832.41;;;1.15;100.00
49104;BME280;34915;52.926;11.116;2023-01-28T01:36:07;102822.84;;;1.14;100.00
49104;BME280;34915;52.926;11.116;2023-01-28T01:38:33;102828.06;;;1.14;100.00
49104;BME280;34915;52.926;11.116;2023-01-28T01:41:01;102826.34;;;1.16;100.00
49104;BME280;34915;52.926;11.116;2023-01-28T01:43:48;102827.19;;;1.17;100.00
49104;BME280;34915;52.926;11.116;2023-01-28T01:46:18;102831.56;;;1.16;100.00
49104;BME280;34915;52.926;11.116;2023-01-28T01:48:45;102836.78;;;1.16;100.00
49104;BME280;34915;52.926;11.116;2023-01-28T01:51:18;102828.06;;;1.17;100.00
49104;BME280;34915;52.926;11.116;2023-01-28T01:53:51;102824.59;;;1.15;100.00
49104;BME280;34915;52.926;11.116;2023-01-28T01:56:21;102822.84;;;1.14;100.00
49104;BME280;34915;52.926;11.116;2023-01-28T01:58:52;102819.38;;;1.15;100.00
49104;BME280;34915;52.926;11.116;2023-01-28T02:01:26;102828.06;;;1.17;100.00
49104;BME280;34915;52.926;11.116;2023-01-28T02:03:59;102829.81;;;1.18;100.00
49104;BME280;34915;52.926;11.116;2023-01-28T02:06:27;102826.34;;;1.22;99.53
49104;BME280;34915;52.926;11.116;2023-01-28T02:08:56;102835.88;;;1.32;98.01
49104;BME280;34915;52.926;11.116;2023-01-28T02:11:25;102822.84;;;1.35;94.23
49104;BME280;34915;52.926;11.116;2023-01-28T02:13:54;102821.97;;;1.33;96.01
49104;BME280;34915;52.926;11.116;2023-01-28T02:16:21;102835.03;;;1.32;96.06
49104;BME280;34915;52.926;11.116;2023-01-28T02:18:47;102833.28;;;1.29;97.49
49104;BME280;34915;52.926;11.116;2023-01-28T02:29:04;102838.50;;;1.50;94.33
49104;BME280;34915;52.926;11.116;2023-01-28T02:31:38;102829.81;;;1.57;90.57
49104;BME280;34915;52.926;11.116;2023-01-28T02:37:03;102827.19;;;1.55;90.88
49104;BME280;34915;52.926;11.116;2023-01-28T02:39:38;102822.81;;;1.62;90.55
49104;BME280;34915;52.926;11.116;2023-01-28T02:42:18;102822.81;;;1.56;92.02
49104;BME280;34915;52.926;11.116;2023-01-28T02:44:45;102824.56;;;1.51;91.90
49104;BME280;34915;52.926;11.116;2023-01-28T02:47:12;102827.16;;;1.49;96.61
49104;BME280;34915;52.926;11.116;2023-01-28T02:49:59;102832.41;;;1.42;97.76
49104;BME280;34915;52.926;11.116;2023-01-28T02:52:46;102829.78;;;1.39;94.65
49104;BME280;34915;52.926;11.116;2023-01-28T03:01:53;102828.06;;;1.50;92.20
49104;BME280;34915;52.926;11.116;2023-01-28T03:04:28;102820.22;;;1.46;91.83
49104;BME280;34915;52.926;11.116;2023-01-28T03:06:59;102820.22;;;1.47;92.06
49104;BME280;34915;52.926;11.116;2023-01-28T03:09:29;102819.34;;;1.48;97.39
49104;BME280;34915;52.926;11.116;2023-01-28T03:12:02;102815.03;;;1.43;98.49
49104;BME280;34915;52.926;11.116;2023-01-28T03:14:51;102810.63;;;1.52;93.53
49104;BME280;34915;52.926;11.116;2023-01-28T03:23:47;102817.63;;;1.35;97.44
49104;BME280;34915;52.926;11.116;2023-01-28T03:26:41;102815.88;;;1.34;96.10
49104;BME280;34915;52.926;11.116;2023-01-28T03:29:28;102815.88;;;1.31;98.59
49104;BME280;34915;52.926;11.116;2023-01-28T03:32:15;102811.53;;;1.29;100.00
49104;BME280;34915;52.926;11.116;2023-01-28T03:34:59;102814.16;;;1.24;99.18
49104;BME280;34915;52.926;11.116;2023-01-28T03:37:44;102810.66;;;1.25;100.00
49104;BME280;34915;52.926;11.116;2023-01-28T03:40:10;102819.34;;;1.30;98.09
49104;BME280;34915;52.926;11.116;2023-01-28T03:42:36;102808.91;;;1.30;95.42
49104;BME280;34915;52.926;11.116;2023-01-28T03:45:02;102807.19;;;1.41;94.59
49104;BME280;34915;52.926;11.116;2023-01-28T03:47:30;102806.31;;;1.39;93.31
49104;BME280;34915;52.926;11.116;2023-01-28T03:49:57;102817.63;;;1.35;93.35
49104;BME280;34915;52.926;11.116;2023-01-28T03:52:27;102812.38;;;1.32;93.73
49104;BME280;34915;52.926;11.116;2023-01-28T03:54:55;102814.13;;;1.36;95.15
49104;BME280;34915;52.926;11.116;2023-01-28T03:57:25;102814.13;;;1.45;92.79
49104;BME280;34915;52.926;11.116;2023-01-28T03:59:52;102802.81;;;1.49;89.56
49104;BME280;34915;52.926;11.116;2023-01-28T04:02:20;102808.91;;;1.48;93.49
49104;BME280;34915;52.926;11.116;2023-01-28T04:04:45;102810.66;;;1.43;93.95
49104;BME280;34915;52.926;11.116;2023-01-28T04:07:12;102821.97;;;1.39;93.48
49104;BME280;34915;52.926;11.116;2023-01-28T04:09:41;102819.34;;;1.42;92.56
49104;BME280;34915;52.926;11.116;2023-01-28T04:12:07;102821.09;;;1.43;91.94
49104;BME280;34915;52.926;11.116;2023-01-28T04:14:33;102822.84;;;1.41;93.00
49104;BME280;34915;52.926;11.116;2023-01-28T04:16:59;102821.97;;;1.38;94.06
49104;BME280;34915;52.926;11.116;2023-01-28T04:19:25;102836.78;;;1.37;96.05
49104;BME280;34915;52.926;11.116;2023-01-28T04:21:51;102824.56;;;1.33;93.32
49104;BME280;34915;52.926;11.116;2023-01-28T04:24:21;102833.28;;;1.35;90.63
49104;BME280;34915;52.926;11.116;2023-01-28T04:26:47;102829.78;;;1.33;92.46
49104;BME280;34915;52.926;11.116;2023-01-28T04:29:13;102830.69;;;1.37;91.19
49104;BME280;34915;52.926;11.116;2023-01-28T04:31:38;102836.75;;;1.46;90.47
49104;BME280;34915;52.926;11.116;2023-01-28T04:34:04;102828.06;;;1.44;90.71
49104;BME280;34915;52.926;11.116;2023-01-28T04:36:29;102831.53;;;1.52;89.69
49104;BME280;34915;52.926;11.116;2023-01-28T04:38:55;102846.34;;;1.48;90.12
49104;BME280;34915;52.926;11.116;2023-01-28T04:41:20;102835.91;;;1.43;89.88
49104;BME280;34915;52.926;11.116;2023-01-28T04:43:46;102838.50;;;1.47;88.79
49104;BME280;34915;52.926;11.116;2023-01-28T04:46:14;102835.91;;;1.47;90.88
49104;BME280;34915;52.926;11.116;2023-01-28T04:48:39;102840.22;;;1.39;93.26
49104;BME280;34915;52.926;11.116;2023-01-28T04:51:05;102845.47;;;1.36;93.36
49104;BME280;34915;52.926;11.116;2023-01-28T04:53:31;102850.69;;;1.33;94.98
49104;BME280;34915;52.926;11.116;2023-01-28T04:55:57;102838.50;;;1.29;91.99
49104;BME280;34915;52.926;11.116;2023-01-28T04:58:23;102840.25;;;1.30;90.44
49104;BME280;34915;52.926;11.116;2023-01-28T05:00:58;102847.22;;;1.31;91.20
49104;BME280;34915;52.926;11.116;2023-01-28T05:03:24;102847.22;;;1.31;90.07
49104;BME280;34915;52.926;11.116;2023-01-28T05:05:50;102841.13;;;1.35;90.66
49104;BME280;34915;52.926;11.116;2023-01-28T05:08:16;102829.78;;;1.36;91.48
49104;BME280;34915;52.926;11.116;2023-01-28T05:10:41;102829.78;;;1.51;85.84
49104;BME280;34915;52.926;11.116;2023-01-28T05:13:07;102825.44;;;1.57;86.55
49104;BME280;34915;52.926;11.116;2023-01-28T05:15:33;102835.88;;;1.60;86.18
49104;BME280;34915;52.926;11.116;2023-01-28T05:17:59;102831.50;;;1.59;88.41
49104;BME280;34915;52.926;11.116;2023-01-28T05:20:24;102840.22;;;1.72;86.07
49104;BME280;34915;52.926;11.116;2023-01-28T05:22:50;102850.63;;;1.84;83.59
49104;BME280;34915;52.926;11.116;2023-01-28T05:25:15;102836.72;;;1.64;87.31
49104;BME280;34915;52.926;11.116;2023-01-28T05:27:41;102838.50;;;1.53;85.74
49104;BME280;34915;52.926;11.116;2023-01-28T05:30:07;102842.84;;;1.46;89.21
49104;BME280;34915;52.926;11.116;2023-01-28T05:32:33;102843.75;;;1.38;89.62
49104;BME280;34915;52.926;11.116;2023-01-28T05:34:58;102842.84;;;1.44;88.28
49104;BME280;34915;52.926;11.116;2023-01-28T05:37:24;102830.69;;;1.43;88.43
49104;BME280;34915;52.926;11.116;2023-01-28T05:39:50;102828.94;;;1.39;91.35
49104;BME280;34915;52.926;11.116;2023-01-28T05:42:15;102835.91;;;1.37;92.07
49104;BME280;34915;52.926;11.116;2023-01-28T05:44:43;102840.22;;;1.42;89.89
49104;BME280;34915;52.926;11.116;2023-01-28T05:47:08;102838.53;;;1.38;88.96
49104;BME280;34915;52.926;11.116;2023-01-28T05:49:34;102831.53;;;1.34;89.06
49104;BME280;34915;52.926;11.116;2023-01-28T05:51:59;102835.03;;;1.33;88.97
49104;BME280;34915;52.926;11.116;2023-01-28T05:54:27;102838.53;;;1.35;90.62
49104;BME280;34915;52.926;11.116;2023-01-28T05:56:52;102831.53;;;1.34;89.71
49104;BME280;34915;52.926;11.116;2023-01-28T05:59:18;102828.03;;;1.32;90.19
49104;BME280;34915;52.926;11.116;2023-01-28T06:01:43;102833.28;;;1.35;92.45
49104;BME280;34915;52.926;11.116;2023-01-28T06:04:09;102835.00;;;1.39;90.00
49104;BME280;34915;52.926;11.116;2023-01-28T06:06:34;102836.78;;;1.37;89.55
49104;BME280;34915;52.926;11.116;2023-01-28T06:09:00;102841.97;;;1.43;87.73
49104;BME280;34915;52.926;11.116;2023-01-28T06:11:28;102841.97;;;1.43;87.95
49104;BME280;34915;52.926;11.116;2023-01-28T06:13:53;102845.47;;;1.36;87.04
49104;BME280;34915;52.926;11.116;2023-01-28T06:16:19;102840.25;;;1.35;87.34
49104;BME280;34915;52.926;11.116;2023-01-28T06:18:44;102842.00;;;1.34;86.68
49104;BME280;34915;52.926;11.116;2023-01-28T06:21:10;102842.84;;;1.38;87.17
49104;BME280;34915;52.926;11.116;2023-01-28T06:23:36;102835.88;;;1.32;87.73
49104;BME280;34915;52.926;11.116;2023-01-28T06:26:01;102848.97;;;1.38;87.44
49104;BME280;34915;52.926;11.116;2023-01-28T06:28:27;102848.94;;;1.32;88.10
49104;BME280;34915;52.926;11.116;2023-01-28T06:30:53;102839.38;;;1.46;88.07
49104;BME280;34915;52.926;11.116;2023-01-28T06:33:19;102830.69;;;1.40;87.57
49104;BME280;34915;52.926;11.116;2023-01-28T06:35:45;102837.63;;;1.39;86.79
49104;BME280;34915;52.926;11.116;2023-01-28T06:38:11;102840.25;;;1.33;88.74
49104;BME280;34915;52.926;11.116;2023-01-28T06:40:37;102845.47;;;1.27;89.89
49104;BME280;34915;52.926;11.116;2023-01-28T06:43:04;102855.91;;;1.24;88.83
49104;BME280;34915;52.926;11.116;2023-01-28T06:45:30;102849.81;;;1.24;88.51
49104;BME280;34915;52.926;11.116;2023-01-28T06:47:56;102842.84;;;1.21;88.58
49104;BME280;34915;52.926;11.116;2023-01-28T06:50:22;102856.75;;;1.26;89.03
49104;BME280;34915;52.926;11.116;2023-01-28T06:52:47;102854.16;;;1.32;87.52
49104;BME280;34915;52.926;11.116;2023-01-28T06:55:13;102850.69;;;1.21;87.74
49104;BME280;34915;52.926;11.116;2023-01-28T06:57:40;102855.91;;;1.30;86.65
49104;BME280;34915;52.926;11.116;2023-01-28T07:00:07;102842.84;;;1.29;89.02
49104;BME280;34915;52.926;11.116;2023-01-28T07:02:34;102853.28;;;1.29;91.36
49104;BME280;34915;52.926;11.116;2023-01-28T07:04:59;102848.94;;;1.26;92.26
49104;BME280;34915;52.926;11.116;2023-01-28T07:07:26;102850.69;;;1.24;91.56
49104;BME280;34915;52.926;11.116;2023-01-28T07:09:51;102850.69;;;1.21;91.63
49104;BME280;34915;52.926;11.116;2023-01-28T07:12:17;102844.59;;;1.19;90.52
49104;BME280;34915;52.926;11.116;2023-01-28T07:14:43;102848.94;;;1.20;91.56
49104;BME280;34915;52.926;11.116;2023-01-28T07:17:08;102846.31;;;1.17;89.78
49104;BME280;34915;52.926;11.116;2023-01-28T07:19:34;102840.25;;;1.18;90.55
49104;BME280;34915;52.926;11.116;2023-01-28T07:21:59;102833.28;;;1.14;93.92
49104;BME280;34915;52.926;11.116;2023-01-28T07:24:27;102848.06;;;1.17;94.49
49104;BME280;34915;52.926;11.116;2023-01-28T07:26:53;102850.69;;;1.15;91.57
49104;BME280;34915;52.926;11.116;2023-01-28T07:29:19;102852.44;;;1.13;91.98
49104;BME280;34915;52.926;11.116;2023-01-28T07:31:44;102848.94;;;1.14;89.69
49104;BME280;34915;52.926;11.116;2023-01-28T07:34:10;102845.47;;;1.15;90.49
49104;BME280;34915;52.926;11.116;2023-01-28T07:36:35;102855.91;;;1.18;89.59
49104;BME280;34915;52.926;11.116;2023-01-28T07:39:01;102862.88;;;1.19;89.46
49104;BME280;34915;52.926;11.116;2023-01-28T07:41:26;102861.13;;;1.21;88.49
49104;BME280;34915;52.926;11.116;2023-01-28T07:43:52;102857.66;;;1.22;88.74
49104;BME280;34915;52.926;11.116;2023-01-28T07:46:17;102868.94;;;1.27;87.06
49104;BME280;34915;52.926;11.116;2023-01-28T07:48:43;102866.34;;;1.27;87.25
49104;BME280;34915;52.926;11.116;2023-01-28T07:51:10;102873.31;;;1.40;85.54
49104;BME280;34915;52.926;11.116;2023-01-28T07:53:36;102882.00;;;1.39;83.99
49104;BME280;34915;52.926;11.116;2023-01-28T07:56:02;102882.88;;;1.50;82.76
49104;BME280;34915;52.926;11.116;2023-01-28T07:58:29;102887.22;;;1.54;85.25
49104;BME280;34915;52.926;11.116;2023-01-28T08:00:58;102884.63;;;1.46;84.59
49104;BME280;34915;52.926;11.116;2023-01-28T08:03:24;102888.97;;;1.43;84.53
49104;BME280;34915;52.926;11.116;2023-01-28T08:05:51;102895.94;;;1.41;82.88
49104;BME280;34915;52.926;11.116;2023-01-28T08:08:18;102888.97;;;1.43;82.29
49104;BME280;34915;52.926;11.116;2023-01-28T08:10:44;102902.03;;;1.49;83.91
49104;BME280;34915;52.926;11.116;2023-01-28T08:13:11;102895.94;;;1.56;84.29
49104;BME280;34915;52.926;11.116;2023-01-28T08:15:36;102897.69;;;1.58;83.68
49104;BME280;34915;52.926;11.116;2023-01-28T08:18:04;102909.84;;;1.55;86.80
49104;BME280;34915;52.926;11.116;2023-01-28T08:20:30;102906.38;;;1.56;85.57
49104;BME280;34915;52.926;11.116;2023-01-28T08:23:16;102894.19;;;1.55;82.71
49104;BME280;34915;52.926;11.116;2023-01-28T08:25:42;102878.50;;;1.64;81.50
49104;BME280;34915;52.926;11.116;2023-01-28T08:28:09;102902.91;;;1.75;81.48
49104;BME280;34915;52.926;11.116;2023-01-28T08:30:36;102902.91;;;1.75;81.06
49104;BME280;34915;52.926;11.116;2023-01-28T08:33:03;102901.16;;;1.75;82.13
49104;BME280;34915;52.926;11.116;2023-01-28T08:35:31;102909.88;;;1.79;81.49
49104;BME280;34915;52.926;11.116;2023-01-28T08:37:58;102908.09;;;1.90;79.67
49104;BME280;34915;52.926;11.116;2023-01-28T08:40:26;102910.72;;;1.84;80.59
49104;BME280;34915;52.926;11.116;2023-01-28T08:42:53;102929.00;;;1.90;79.68
49104;BME280;34915;52.926;11.116;2023-01-28T08:45:21;102924.66;;;1.87;78.55
49104;BME280;34915;52.926;11.116;2023-01-28T08:47:54;102915.09;;;1.83;78.63
49104;BME280;34915;52.926;11.116;2023-01-28T08:50:21;102930.75;;;1.91;78.98
49104;BME280;34915;52.926;11.116;2023-01-28T08:52:48;102934.19;;;2.07;78.40
49104;BME280;34915;52.926;11.116;2023-01-28T08:55:18;102927.25;;;2.06;77.46
49104;BME280;34915;52.926;11.116;2023-01-28T08:57:44;102942.94;;;2.09;76.04
49104;BME280;34915;52.926;11.116;2023-01-28T09:00:10;102941.16;;;2.14;77.35
49104;BME280;34915;52.926;11.116;2023-01-28T09:02:37;102946.41;;;2.08;77.95
49104;BME280;34915;52.926;11.116;2023-01-28T09:05:03;102950.78;;;2.03;78.06
49104;BME280;34915;52.926;11.116;2023-01-28T09:07:29;102946.41;;;1.99;77.87
49104;BME280;34915;52.926;11.116;2023-01-28T09:09:55;102953.41;;;2.00;79.86
49104;BME280;34915;52.926;11.116;2023-01-28T09:12:21;102951.63;;;2.08;78.57
49104;BME280;34915;52.926;11.116;2023-01-28T09:14:46;102958.63;;;2.06;77.96
49104;BME280;34915;52.926;11.116;2023-01-28T09:17:12;102955.09;;;2.07;78.80
49104;BME280;34915;52.926;11.116;2023-01-28T09:19:37;102967.31;;;2.11;78.74
49104;BME280;34915;52.926;11.116;2023-01-28T09:22:04;102969.91;;;2.16;79.46
49104;BME280;34915;52.926;11.116;2023-01-28T09:24:30;102976.00;;;2.10;78.58
49104;BME280;34915;52.926;11.116;2023-01-28T09:26:55;102976.00;;;2.16;79.57
49104;BME280;34915;52.926;11.116;2023-01-28T09:29:21;102976.03;;;2.04;79.86
49104;BME280;34915;52.926;11.116;2023-01-28T09:31:46;102984.75;;;2.06;80.38
49104;BME280;34915;52.926;11.116;2023-01-28T09:34:12;102988.22;;;2.05;80.29
49104;BME280;34915;52.926;11.116;2023-01-28T09:36:37;102981.25;;;2.10;80.08
49104;BME280;34915;52.926;11.116;2023-01-28T09:39:04;102977.78;;;2.04;79.33
49104;BME280;34915;52.926;11.116;2023-01-28T09:41:42;102979.53;;;2.03;79.74
49104;BME280;34915;52.926;11.116;2023-01-28T09:47:11;102995.22;;;2.03;80.65
49104;BME280;34915;52.926;11.116;2023-01-28T09:49:47;102974.31;;;2.00;80.24
49104;BME280;34915;52.926;11.116;2023-01-28T09:52:17;102982.13;;;2.06;77.83
49104;BME280;34915;52.926;11.116;2023-01-28T09:57:36;102978.66;;;1.90;78.95
49104;BME280;34915;52.926;11.116;2023-01-28T10:00:12;102980.41;;;1.86;81.11
49104;BME280;34915;52.926;11.116;2023-01-28T10:05:18;102977.78;;;1.88;81.22
49104;BME280;34915;52.926;11.116;2023-01-28T10:08:55;102977.78;;;1.96;80.84
49104;BME280;34915;52.926;11.116;2023-01-28T10:10:56;102989.97;;;2.09;78.81
49104;BME280;34915;52.926;11.116;2023-01-28T10:14:07;102989.97;;;2.18;78.07
49104;BME280;34915;52.926;11.116;2023-01-28T10:16:37;102988.19;;;2.29;76.17
49104;BME280;34915;52.926;11.116;2023-01-28T10:19:31;102986.47;;;2.25;75.36
49104;BME280;34915;52.926;11.116;2023-01-28T10:22:12;102982.97;;;2.23;76.55
49104;BME280;34915;52.926;11.116;2023-01-28T10:24:52;102989.97;;;2.24;77.02
49104;BME280;34915;52.926;11.116;2023-01-28T10:27:21;102989.94;;;2.27;76.84
49104;BME280;34915;52.926;11.116;2023-01-28T10:29:49;102975.09;;;2.40;75.87
49104;BME280;34915;52.926;11.116;2023-01-28T10:34:48;102976.00;;;2.34;76.07
49104;BME280;34915;52.926;11.116;2023-01-28T10:37:14;102967.25;;;2.38;76.20
49104;BME280;34915;52.926;11.116;2023-01-28T10:39:41;102958.53;;;2.38;75.29
49104;BME280;34915;52.926;11.116;2023-01-28T10:42:34;102967.25;;;2.38;75.42
49104;BME280;34915;52.926;11.116;2023-01-28T10:47:43;102986.44;;;2.46;74.79
49104;BME280;34915;52.926;11.116;2023-01-28T10:50:21;102969.88;;;2.43;76.11
49104;BME280;34915;52.926;11.116;2023-01-28T10:53:03;102969.00;;;2.33;74.38
49104;BME280;34915;52.926;11.116;2023-01-28T10:55:36;102976.84;;;2.36;73.86
49104;BME280;34915;52.926;11.116;2023-01-28T10:58:17;102976.03;;;2.22;75.91
49104;BME280;34915;52.926;11.116;2023-01-28T11:00:44;102979.47;;;2.30;76.87
49104;BME280;34915;52.926;11.116;2023-01-28T11:03:17;102977.69;;;2.41;76.58
49104;BME280;34915;52.926;11.116;2023-01-28T11:05:50;102981.22;;;2.40;76.43
49104;BME280;34915;52.926;11.116;2023-01-28T11:08:20;102973.38;;;2.34;74.27
49104;BME280;34915;52.926;11.116;2023-01-28T11:10:48;102969.03;;;2.27;76.40
49104;BME280;34915;52.926;11.116;2023-01-28T11:13:22;102957.72;;;2.30;76.26
49104;BME280;34915;52.926;11.116;2023-01-28T11:16:02;102961.16;;;2.41;74.34
49104;BME280;34915;52.926;11.116;2023-01-28T11:18:34;102949.84;;;2.31;74.36
49104;BME280;34915;52.926;11.116;2023-01-28T11:21:05;102951.59;;;2.29;75.15
49104;BME280;34915;52.926;11.116;2023-01-28T11:23:48;102944.59;;;2.46;75.48
49104;BME280;34915;52.926;11.116;2023-01-28T11:26:21;102943.72;;;2.50;75.03
49104;BME280;34915;52.926;11.116;2023-01-28T11:28:47;102935.84;;;2.41;74.40
49104;BME280;34915;52.926;11.116;2023-01-28T11:31:15;102941.97;;;2.47;75.24
49104;BME280;34915;52.926;11.116;2023-01-28T11:33:49;102928.94;;;2.34;73.92
49104;BME280;34915;52.926;11.116;2023-01-28T11:36:22;102937.59;;;2.48;75.52
49104;BME280;34915;52.926;11.116;2023-01-28T11:39:00;102926.19;;;2.64;74.46
49104;BME280;34915;52.926;11.116;2023-01-28T11:41:34;102914.00;;;2.63;73.49
49104;BME280;34915;52.926;11.116;2023-01-28T11:44:14;102923.56;;;2.67;74.63
49104;BME280;34915;52.926;11.116;2023-01-28T12:05:57;102877.38;;;2.58;75.92
49104;BME280;34915;52.926;11.116;2023-01-28T12:08:47;102870.34;;;2.77;72.83
49104;BME280;34915;52.926;11.116;2023-01-28T12:16:57;102857.41;;;2.50;74.78
49104;BME280;34915;52.926;11.116;2023-01-28T12:19:36;102845.22;;;2.46;76.77
49104;BME280;34915;52.926;11.116;2023-01-28T12:22:19;102831.28;;;2.35;78.38
49104;BME280;34915;52.926;11.116;2023-01-28T12:25:11;102824.38;;;2.25;77.21
49104;BME280;34915;52.926;11.116;2023-01-28T12:28:07;102815.59;;;2.35;77.03
49104;BME280;34915;52.926;11.116;2023-01-28T12:38:45;102790.97;;;2.78;75.95
49104;BME280;34915;52.926;11.116;2023-01-28T12:41:21;102796.22;;;2.78;74.58
49104;BME280;34915;52.926;11.116;2023-01-28T12:43:59;102777.06;;;2.70;75.45
49104;BME280;34915;52.926;11.116;2023-01-28T12:56:57;102809.25;;;2.82;73.17
49104;BME280;34915;52.926;11.116;2023-01-28T12:59:28;102805.81;;;2.73;74.94
49104;BME280;34915;52.926;11.116;2023-01-28T13:07:05;102803.28;;;2.58;74.49
49104;BME280;34915;52.926;11.116;2023-01-28T13:09:34;102819.91;;;2.49;74.29
49104;BME280;34915;52.926;11.116;2023-01-28T13:12:01;102810.34;;;2.38;74.70
49104;BME280;34915;52.926;11.116;2023-01-28T13:14:29;102808.69;;;2.31;75.42
49104;BME280;34915;52.926;11.116;2023-01-28T13:17:08;102799.88;;;2.41;74.99
49104;BME280;34915;52.926;11.116;2023-01-28T13:19:40;102814.63;;;2.55;75.56
49104;BME280;34915;52.926;11.116;2023-01-28T13:22:27;102825.13;;;2.51;75.37
49104;BME280;34915;52.926;11.116;2023-01-28T13:24:53;102838.19;;;2.51;75.82
49104;BME280;34915;52.926;11.116;2023-01-28T13:27:24;102829.47;;;2.55;74.81
49104;BME280;34915;52.926;11.116;2023-01-28T13:30:24;102823.38;;;2.53;74.71
49104;BME280;34915;52.926;11.116;2023-01-28T13:32:58;102824.22;;;2.58;74.87
49104;BME280;34915;52.926;11.116;2023-01-28T13:37:56;102836.56;;;2.29;76.34
49104;BME280;34915;52.926;11.116;2023-01-28T13:40:26;102832.25;;;2.13;77.28
49104;BME280;34915;52.926;11.116;2023-01-28T13:43:04;102838.38;;;2.09;78.49
49104;BME280;34915;52.926;11.116;2023-01-28T13:45:31;102824.38;;;2.27;76.78
49104;BME280;34915;52.926;11.116;2023-01-28T13:48:22;102828.66;;;2.37;77.60
49104;BME280;34915;52.926;11.116;2023-01-28T13:50:54;102810.34;;;2.44;76.69
49104;BME280;34915;52.926;11.116;2023-01-28T13:53:36;102790.31;;;2.44;76.76
49104;BME280;34915;52.926;11.116;2023-01-28T13:56:08;102780.75;;;2.36;77.38
49104;BME280;34915;52.926;11.116;2023-01-28T13:59:04;102772.03;;;2.40;76.93
49104;BME280;34915;52.926;11.116;2023-01-28T14:18:24;102762.44;;;2.36;76.52
49104;BME280;34915;52.926;11.116;2023-01-28T14:20:52;102759.91;;;2.21;78.63
49104;BME280;34915;52.926;11.116;2023-01-28T14:23:21;102768.53;;;2.38;77.49
49104;BME280;34915;52.926;11.116;2023-01-28T14:31:41;102763.41;;;2.17;80.41
49104;BME280;34915;52.926;11.116;2023-01-28T14:34:30;102760.81;;;2.14;78.02
49104;BME280;34915;52.926;11.116;2023-01-28T14:37:04;102792.19;;;2.14;77.06
49104;BME280;34915;52.926;11.116;2023-01-28T14:40:00;102793.09;;;2.04;77.80
49104;BME280;34915;52.926;11.116;2023-01-28T14:42:34;102808.75;;;2.07;77.89
49104;BME280;34915;52.926;11.116;2023-01-28T14:45:37;102819.19;;;2.10;78.14
49104;BME280;34915;52.926;11.116;2023-01-28T14:59:11;102848.84;;;2.06;78.63
49104;BME280;34915;52.926;11.116;2023-01-28T15:01:45;102848.88;;;2.00;78.59
49104;BME280;34915;52.926;11.116;2023-01-28T15:04:32;102841.03;;;1.87;79.34